Time;durP1;ratioP1;P1;durP2;ratioP2;P2;SDS_P1;SDS_P2;PMS_P1;PMS_P2;Temp;Humidity;BMP_temperature;BMP_pressure;BME280_temperature;BME280_humidity;BME280_pressure;Samples;Min_cycle;Max_cycle;Signal;HPM_P1;HPM_P2
2022/07/30 00:01:33;;;;;;;3.72;2.35;;;18.30;72.90;;;;;;5003236;28;20037;-70
2022/07/30 00:03:58;;;;;;;3.40;2.17;;;18.30;73.20;;;;;;5018104;28;20067;-70
2022/07/30 00:06:24;;;;;;;3.00;2.65;;;18.20;73.20;;;;;;5001537;28;20411;-71
2022/07/30 00:08:49;;;;;;;2.00;1.83;;;18.20;73.10;;;;;;5004541;28;20046;-70
2022/07/30 00:11:15;;;;;;;2.92;2.60;;;18.20;73.10;;;;;;5020259;28;20056;-70
2022/07/30 00:13:40;;;;;;;5.75;2.75;;;18.20;72.90;;;;;;5000612;28;20114;-70
2022/07/30 00:16:06;;;;;;;2.63;2.42;;;18.20;73.00;;;;;;5000904;28;20026;-69
2022/07/30 00:18:32;;;;;;;3.05;2.22;;;18.20;73.10;;;;;;5014010;28;20041;-71
2022/07/30 00:20:57;;;;;;;6.20;2.60;;;18.10;73.20;;;;;;5010356;28;20711;-70
2022/07/30 00:23:23;;;;;;;2.15;2.00;;;18.10;73.30;;;;;;5000452;28;20037;-71
2022/07/30 00:25:48;;;;;;;4.43;2.67;;;18.00;73.30;;;;;;5011277;28;20047;-69
2022/07/30 00:28:14;;;;;;;2.97;1.92;;;18.00;73.30;;;;;;4991068;28;20049;-68
2022/07/30 00:30:40;;;;;;;3.17;2.00;;;18.00;73.50;;;;;;5007555;28;20068;-69
2022/07/30 00:33:05;;;;;;;2.47;2.03;;;18.00;73.40;;;;;;4999835;28;20819;-69
2022/07/30 00:35:31;;;;;;;2.85;2.65;;;18.00;73.30;;;;;;4998167;28;20079;-69
2022/07/30 00:37:57;;;;;;;3.10;2.42;;;18.00;73.30;;;;;;4993395;28;20049;-70
2022/07/30 00:40:22;;;;;;;4.32;2.42;;;17.90;73.40;;;;;;5015034;28;20037;-71
2022/07/30 00:42:48;;;;;;;2.33;2.13;;;17.90;73.40;;;;;;5001649;28;20048;-69
2022/07/30 00:45:14;;;;;;;5.65;2.78;;;17.90;73.40;;;;;;5017933;28;20033;-69
2022/07/30 00:47:40;;;;;;;3.70;2.40;;;17.90;73.40;;;;;;4988414;28;20154;-69
2022/07/30 00:50:07;;;;;;;3.33;1.90;;;17.90;73.40;;;;;;5011610;28;20604;-69
2022/07/30 00:52:37;;;;;;;4.72;2.58;;;17.90;73.40;;;;;;5015113;28;20125;-70
2022/07/30 00:55:02;;;;;;;4.50;2.25;;;17.90;73.20;;;;;;4986450;28;20402;-69
2022/07/30 00:57:28;;;;;;;3.20;2.55;;;17.90;73.20;;;;;;5013837;28;20036;-70
2022/07/30 00:59:54;;;;;;;2.60;2.30;;;17.90;73.10;;;;;;5018790;28;20743;-70
2022/07/30 01:02:19;;;;;;;3.78;2.20;;;17.90;73.20;;;;;;5013902;28;20120;-70
2022/07/30 01:04:45;;;;;;;2.13;1.92;;;17.90;73.00;;;;;;4997302;28;20053;-69
2022/07/30 01:07:10;;;;;;;3.55;2.60;;;17.90;73.00;;;;;;4997844;28;20033;-69
2022/07/30 01:09:37;;;;;;;3.65;3.13;;;17.90;72.90;;;;;;4989848;28;20558;-69
2022/07/30 01:12:03;;;;;;;5.07;3.55;;;17.90;73.00;;;;;;5004022;28;20067;-70
2022/07/30 01:14:28;;;;;;;6.13;4.10;;;17.90;73.20;;;;;;5014557;28;20037;-71
2022/07/30 01:16:54;;;;;;;4.68;3.10;;;17.80;73.50;;;;;;5010749;28;20060;-72
2022/07/30 01:22:27;;;;;;;2.90;2.70;;;17.80;73.70;;;;;;5023900;28;20056;-69
2022/07/30 01:25:16;;;;;;;3.42;2.47;;;17.70;74.00;;;;;;5018651;28;20037;-70
2022/07/30 01:27:49;;;;;;;8.75;3.33;;;17.70;73.90;;;;;;5011733;28;20048;-71
2022/07/30 01:30:18;;;;;;;3.38;3.08;;;17.70;73.90;;;;;;5013213;28;20125;-70
2022/07/30 01:32:43;;;;;;;2.90;2.55;;;17.70;73.60;;;;;;5001823;28;20036;-70
2022/07/30 01:35:09;;;;;;;4.13;3.05;;;17.70;73.60;;;;;;5002681;28;20044;-69
2022/07/30 01:37:36;;;;;;;3.30;3.00;;;17.60;73.50;;;;;;4993450;28;20044;-69
2022/07/30 01:40:02;;;;;;;3.13;2.83;;;17.70;73.70;;;;;;5002756;28;20045;-69
2022/07/30 01:42:27;;;;;;;6.20;4.00;;;17.70;73.90;;;;;;5011090;28;20033;-69
2022/07/30 01:44:53;;;;;;;5.63;3.40;;;17.70;73.90;;;;;;5001568;28;20041;-70
2022/07/30 01:47:18;;;;;;;3.78;3.47;;;17.60;73.90;;;;;;4999928;28;20044;-69
2022/07/30 01:49:46;;;;;;;2.88;2.58;;;17.60;73.90;;;;;;5010245;28;20044;-69
2022/07/30 01:52:11;;;;;;;2.83;2.63;;;17.60;74.00;;;;;;5024332;28;20025;-70
2022/07/30 01:54:37;;;;;;;7.63;2.55;;;17.50;74.00;;;;;;4977275;28;20753;-69
2022/07/30 01:57:02;;;;;;;3.55;2.45;;;17.50;74.00;;;;;;4973912;28;20639;-69
2022/07/30 01:59:29;;;;;;;3.63;3.20;;;17.50;74.00;;;;;;4999977;28;20041;-69
2022/07/30 02:01:54;;;;;;;3.67;3.38;;;17.50;74.00;;;;;;5019297;28;20533;-70
2022/07/30 02:04:20;;;;;;;5.22;3.10;;;17.50;74.20;;;;;;5017554;28;20572;-69
2022/07/30 02:06:51;;;;;;;3.42;3.13;;;17.50;74.10;;;;;;4992106;28;20048;-70
2022/07/30 02:09:20;;;;;;;4.05;3.67;;;17.50;74.30;;;;;;5013448;28;20049;-71
2022/07/30 02:14:38;;;;;;;2.80;2.60;;;17.40;74.30;;;;;;5000584;28;20416;-69
2022/07/30 02:17:04;;;;;;;7.75;2.75;;;17.40;74.40;;;;;;4973746;28;20034;-69
2022/07/30 02:19:32;;;;;;;2.95;2.67;;;17.40;74.30;;;;;;4992474;28;20601;-72
2022/07/30 02:22:04;;;;;;;3.78;3.10;;;17.40;74.40;;;;;;5011910;28;20115;-69
2022/07/30 02:24:30;;;;;;;5.72;2.90;;;17.40;74.50;;;;;;5020954;28;20026;-69
2022/07/30 02:26:59;;;;;;;2.95;2.65;;;17.30;74.30;;;;;;5007566;28;20048;-68
2022/07/30 02:29:24;;;;;;;3.40;2.88;;;17.30;74.40;;;;;;5012288;28;20438;-69
2022/07/30 02:31:51;;;;;;;3.55;2.40;;;17.30;74.40;;;;;;5020363;28;20084;-69
2022/07/30 02:34:16;;;;;;;2.33;2.10;;;17.20;75.20;;;;;;5008140;28;20029;-70
2022/07/30 02:36:42;;;;;;;2.60;2.40;;;17.20;74.40;;;;;;5013691;28;20509;-69
2022/07/30 02:39:08;;;;;;;5.07;2.47;;;17.20;74.40;;;;;;4977879;28;20033;-68
2022/07/30 02:41:35;;;;;;;6.70;3.00;;;17.20;74.60;;;;;;5007907;28;20088;-70
2022/07/30 02:44:00;;;;;;;3.45;3.10;;;17.20;74.50;;;;;;5011633;28;20029;-70
2022/07/30 02:46:26;;;;;;;5.57;3.10;;;17.20;74.60;;;;;;5010418;28;20037;-70
2022/07/30 02:48:52;;;;;;;5.20;3.20;;;17.20;74.80;;;;;;4995598;28;20029;-70
2022/07/30 02:51:17;;;;;;;5.10;3.63;;;17.10;74.90;;;;;;5018938;28;20034;-69
2022/07/30 02:53:44;;;;;;;5.15;4.45;;;17.10;75.10;;;;;;4997703;28;20062;-69
2022/07/30 02:56:10;;;;;;;5.72;3.85;;;17.10;75.30;;;;;;5008131;28;20043;-70
2022/07/30 02:58:36;;;;;;;4.93;3.85;;;17.00;75.30;;;;;;5000982;28;20464;-69
2022/07/30 03:01:02;;;;;;;7.50;5.32;;;17.00;76.30;;;;;;4992124;28;20120;-70
2022/07/30 03:03:28;;;;;;;6.00;4.28;;;17.00;75.60;;;;;;4984250;28;20120;-71
2022/07/30 03:05:54;;;;;;;5.78;3.53;;;17.00;75.80;;;;;;4981441;28;20116;-69
2022/07/30 03:08:19;;;;;;;9.88;5.28;;;17.00;75.90;;;;;;5003052;28;20048;-69
2022/07/30 03:10:45;;;;;;;10.43;5.22;;;17.00;76.00;;;;;;5010381;28;20559;-69
2022/07/30 03:13:11;;;;;;;6.50;4.82;;;17.00;76.10;;;;;;5015267;28;20045;-70
2022/07/30 03:15:37;;;;;;;4.43;3.90;;;17.00;76.20;;;;;;4997042;28;20163;-69
2022/07/30 03:18:02;;;;;;;5.97;4.13;;;17.00;76.30;;;;;;4968009;28;20581;-71
2022/07/30 03:20:29;;;;;;;3.83;3.45;;;17.00;76.30;;;;;;5016417;28;20037;-70
2022/07/30 03:22:56;;;;;;;3.95;3.63;;;17.00;77.00;;;;;;5002957;28;20057;-69
2022/07/30 03:25:23;;;;;;;4.35;3.33;;;17.00;76.10;;;;;;4996067;28;20064;-70
2022/07/30 03:27:49;;;;;;;4.30;3.67;;;17.00;76.10;;;;;;4993431;28;20040;-70
2022/07/30 03:30:15;;;;;;;3.75;2.83;;;17.00;76.00;;;;;;4985970;28;20047;-69
2022/07/30 03:32:40;;;;;;;3.47;3.17;;;17.10;76.00;;;;;;5005157;28;20780;-69
2022/07/30 03:35:07;;;;;;;4.50;3.00;;;17.10;75.80;;;;;;5033078;28;20073;-69
2022/07/30 03:37:33;;;;;;;4.78;3.13;;;17.10;75.70;;;;;;4980031;28;20095;-70
2022/07/30 03:39:59;;;;;;;3.72;3.25;;;17.20;75.70;;;;;;4971534;28;20068;-70
2022/07/30 03:42:25;;;;;;;2.55;2.35;;;17.20;75.90;;;;;;5007444;28;20056;-69
2022/07/30 03:44:50;;;;;;;3.33;3.03;;;17.10;75.80;;;;;;4991943;28;20034;-69
2022/07/30 03:47:16;;;;;;;3.08;2.78;;;17.20;75.70;;;;;;4992927;28;20041;-69
2022/07/30 03:49:41;;;;;;;2.75;2.38;;;17.20;75.40;;;;;;4998184;28;20505;-69
2022/07/30 03:52:07;;;;;;;2.60;2.40;;;17.20;75.50;;;;;;5009088;28;20111;-69
2022/07/30 03:54:33;;;;;;;3.17;2.90;;;17.20;75.40;;;;;;5001174;28;20143;-69
2022/07/30 03:57:00;;;;;;;3.28;2.83;;;17.30;75.60;;;;;;5018961;28;20096;-69
2022/07/30 03:59:26;;;;;;;2.45;2.22;;;17.20;75.50;;;;;;4987002;28;20044;-72
2022/07/30 04:01:51;;;;;;;4.00;3.40;;;17.30;75.50;;;;;;4992424;28;20477;-71
2022/07/30 04:04:17;;;;;;;2.50;2.30;;;17.30;75.50;;;;;;5017517;28;20037;-72
2022/07/30 04:06:42;;;;;;;2.63;2.08;;;17.30;76.40;;;;;;4998814;28;20540;-73
2022/07/30 04:09:09;;;;;;;3.58;2.72;;;17.30;75.30;;;;;;4975425;28;20162;-72
2022/07/30 04:11:34;;;;;;;4.85;3.95;;;17.30;75.20;;;;;;5000003;28;20036;-72
2022/07/30 04:14:00;;;;;;;2.67;2.22;;;17.30;75.40;;;;;;4980016;28;20025;-72
2022/07/30 04:16:56;;;;;;;2.40;2.20;;;17.30;75.70;;;;;;4993904;28;20041;-72
2022/07/30 04:19:25;;;;;;;3.58;3.28;;;17.30;75.60;;;;;;4985681;28;20065;-73
2022/07/30 04:21:51;;;;;;;3.40;3.10;;;17.30;75.50;;;;;;4990007;28;20552;-73
2022/07/30 04:24:17;;;;;;;3.78;3.13;;;17.40;75.70;;;;;;4989218;28;20092;-73
2022/07/30 04:26:43;;;;;;;4.60;3.22;;;17.40;75.80;;;;;;5023542;28;20038;-73
2022/07/30 04:29:08;;;;;;;3.42;2.90;;;17.40;75.80;;;;;;5021990;28;20052;-73
2022/07/30 04:31:34;;;;;;;3.85;3.53;;;17.40;76.00;;;;;;5011742;28;20078;-69
2022/07/30 04:34:01;;;;;;;2.92;2.60;;;17.40;76.00;;;;;;5005517;28;20047;-69
2022/07/30 04:36:27;;;;;;;3.28;2.63;;;17.40;76.30;;;;;;5011610;28;20037;-70
2022/07/30 04:38:53;;;;;;;4.20;2.55;;;17.40;76.20;;;;;;5009547;28;20036;-70
2022/07/30 04:41:18;;;;;;;2.15;1.95;;;17.40;76.20;;;;;;5033341;28;20033;-70
2022/07/30 04:43:44;;;;;;;4.22;2.50;;;17.40;76.10;;;;;;5045554;28;20036;-70
2022/07/30 04:46:09;;;;;;;6.60;3.50;;;17.50;75.90;;;;;;5012380;28;20029;-70
2022/07/30 04:48:35;;;;;;;4.15;3.50;;;17.40;75.90;;;;;;5018826;28;20037;-70
2022/07/30 04:51:02;;;;;;;4.65;2.90;;;17.50;76.20;;;;;;5007990;28;20107;-70
2022/07/30 04:53:27;;;;;;;4.63;3.55;;;17.50;76.50;;;;;;5020560;28;20101;-69
2022/07/30 04:55:53;;;;;;;4.60;4.20;;;17.50;76.50;;;;;;5027052;28;20040;-71
2022/07/30 04:58:19;;;;;;;4.75;3.35;;;17.50;76.50;;;;;;5043738;28;20052;-70
2022/07/30 05:00:44;;;;;;;4.82;2.97;;;17.50;76.70;;;;;;5002481;28;20041;-70
2022/07/30 05:03:11;;;;;;;4.05;3.28;;;17.50;76.90;;;;;;5027704;28;20033;-69
2022/07/30 05:05:36;;;;;;;2.95;2.47;;;17.50;77.20;;;;;;5004669;28;20501;-71
2022/07/30 05:08:02;;;;;;;3.90;2.75;;;17.50;77.20;;;;;;5015916;28;20084;-71
2022/07/30 05:10:28;;;;;;;3.38;2.60;;;17.50;76.80;;;;;;4997603;28;20049;-71
2022/07/30 05:12:54;;;;;;;4.60;3.58;;;17.50;76.80;;;;;;5005387;28;20064;-71
2022/07/30 05:15:19;;;;;;;3.13;2.83;;;17.50;77.00;;;;;;5023868;28;20344;-70
2022/07/30 05:17:45;;;;;;;4.47;3.38;;;17.60;77.10;;;;;;5003795;28;20115;-71
2022/07/30 05:20:11;;;;;;;3.90;3.03;;;17.60;77.10;;;;;;5032635;28;20041;-70
2022/07/30 05:22:36;;;;;;;5.28;2.22;;;17.60;77.30;;;;;;5009845;28;20821;-70
2022/07/30 05:25:02;;;;;;;4.05;3.60;;;17.60;77.20;;;;;;5021484;28;20032;-70
2022/07/30 05:27:27;;;;;;;3.40;3.05;;;17.60;77.10;;;;;;5006505;28;20041;-71
2022/07/30 05:29:53;;;;;;;4.20;2.40;;;17.60;77.20;;;;;;5016364;28;20025;-71
2022/07/30 05:32:19;;;;;;;4.03;3.00;;;17.60;77.20;;;;;;5034435;28;20389;-69
2022/07/30 05:34:44;;;;;;;4.85;3.90;;;17.70;77.10;;;;;;5009585;28;20099;-70
2022/07/30 05:37:10;;;;;;;3.92;3.60;;;17.70;77.10;;;;;;5036891;28;20136;-70
2022/07/30 05:39:35;;;;;;;2.83;2.63;;;17.70;77.30;;;;;;5037858;28;20056;-69
2022/07/30 05:42:01;;;;;;;3.63;3.33;;;17.70;77.40;;;;;;5020564;28;20120;-71
2022/07/30 05:44:26;;;;;;;4.35;2.28;;;17.70;77.20;;;;;;5008339;28;20128;-70
2022/07/30 05:46:52;;;;;;;3.47;2.95;;;17.70;77.30;;;;;;5019658;28;20124;-70
2022/07/30 05:49:17;;;;;;;5.13;2.35;;;17.70;77.10;;;;;;5028198;28;20049;-70
2022/07/30 05:51:43;;;;;;;3.60;3.25;;;17.70;77.00;;;;;;5036573;28;20048;-70
2022/07/30 05:54:08;;;;;;;5.95;3.35;;;17.70;76.90;;;;;;5023200;28;20042;-70
2022/07/30 05:56:34;;;;;;;2.80;2.60;;;17.70;77.00;;;;;;5024623;28;20035;-70
2022/07/30 05:59:00;;;;;;;3.33;3.03;;;17.80;77.00;;;;;;5011036;28;20037;-72
2022/07/30 06:01:26;;;;;;;3.80;3.13;;;17.80;76.90;;;;;;5007811;28;20045;-70
2022/07/30 06:03:51;;;;;;;5.35;4.28;;;17.90;76.90;;;;;;5037092;28;20752;-70
2022/07/30 06:06:17;;;;;;;3.13;2.83;;;17.90;77.00;;;;;;5038390;28;20493;-69
2022/07/30 06:08:43;;;;;;;3.80;3.33;;;17.90;77.10;;;;;;4995763;28;20064;-70
2022/07/30 06:11:08;;;;;;;5.35;3.30;;;18.00;76.90;;;;;;5045849;28;20033;-70
2022/07/30 06:13:34;;;;;;;3.75;2.70;;;18.10;76.70;;;;;;5034797;28;20606;-70
2022/07/30 06:16:00;;;;;;;4.55;4.05;;;18.20;76.50;;;;;;5039988;28;20076;-70
2022/07/30 06:18:25;;;;;;;3.60;3.30;;;18.20;76.30;;;;;;5042377;28;20048;-71
2022/07/30 06:20:52;;;;;;;3.47;2.92;;;18.30;76.40;;;;;;5022497;28;20619;-70
2022/07/30 06:23:19;;;;;;;3.15;2.63;;;18.40;76.10;;;;;;5016570;28;20120;-70
2022/07/30 06:25:45;;;;;;;5.50;3.92;;;18.50;75.90;;;;;;5008428;28;20060;-69
2022/07/30 06:28:11;;;;;;;5.63;4.28;;;18.60;75.90;;;;;;4998571;28;20044;-70
2022/07/30 06:30:37;;;;;;;5.43;4.38;;;18.70;76.00;;;;;;5025622;28;20513;-70
2022/07/30 06:33:02;;;;;;;4.85;4.20;;;18.70;76.00;;;;;;5043516;28;20033;-70
2022/07/30 06:35:28;;;;;;;3.97;3.00;;;18.80;76.80;;;;;;5021230;28;20036;-69
2022/07/30 06:37:53;;;;;;;4.15;3.25;;;18.90;76.00;;;;;;4996724;28;20052;-70
2022/07/30 06:40:20;;;;;;;3.92;3.63;;;19.00;75.70;;;;;;4975176;28;20029;-70
2022/07/30 06:42:45;;;;;;;3.13;2.88;;;19.10;75.60;;;;;;5047448;28;20619;-70
2022/07/30 06:45:11;;;;;;;3.35;3.05;;;19.20;75.50;;;;;;5042518;28;20041;-69
2022/07/30 06:47:36;;;;;;;6.15;4.05;;;19.40;75.30;;;;;;4998729;28;20034;-71
2022/07/30 06:50:02;;;;;;;4.50;4.10;;;19.50;75.20;;;;;;5009892;28;20029;-70
2022/07/30 06:52:28;;;;;;;4.47;4.07;;;19.60;75.10;;;;;;5021869;28;20040;-70
2022/07/30 06:54:53;;;;;;;5.72;3.55;;;19.70;75.30;;;;;;5036077;28;20034;-70
2022/07/30 06:57:19;;;;;;;3.55;3.25;;;19.80;75.20;;;;;;5038429;28;20628;-70
2022/07/30 06:59:44;;;;;;;5.22;3.58;;;19.90;75.10;;;;;;5023184;28;20045;-71
2022/07/30 07:02:10;;;;;;;4.60;3.47;;;20.00;75.10;;;;;;4996942;28;20061;-70
2022/07/30 07:04:36;;;;;;;5.93;4.22;;;20.10;75.20;;;;;;5023206;28;20038;-70
2022/07/30 07:07:01;;;;;;;3.85;2.75;;;20.20;75.10;;;;;;5036108;28;20029;-70
2022/07/30 07:09:27;;;;;;;3.50;3.20;;;20.30;75.80;;;;;;5011941;28;20040;-72
2022/07/30 07:11:52;;;;;;;6.03;3.97;;;20.40;74.70;;;;;;5011665;28;20521;-71
2022/07/30 07:14:18;;;;;;;6.05;4.15;;;20.50;74.40;;;;;;5033526;28;20049;-71
2022/07/30 07:16:44;;;;;;;5.32;4.45;;;20.60;74.30;;;;;;5015324;28;20147;-72
2022/07/30 07:19:09;;;;;;;4.20;3.80;;;20.70;74.30;;;;;;5013365;28;20461;-73
2022/07/30 07:21:35;;;;;;;4.60;3.72;;;20.80;74.10;;;;;;4991397;28;20236;-73
2022/07/30 07:24:01;;;;;;;4.70;3.88;;;20.80;73.90;;;;;;5021793;28;20091;-73
2022/07/30 07:26:27;;;;;;;6.07;3.85;;;20.90;73.80;;;;;;5022438;28;20068;-71
2022/07/30 07:28:53;;;;;;;3.13;2.83;;;20.90;73.90;;;;;;5013417;28;20052;-72
2022/07/30 07:31:18;;;;;;;3.42;3.13;;;21.00;73.70;;;;;;5007663;28;20036;-72
2022/07/30 07:33:45;;;;;;;3.42;3.22;;;21.00;73.50;;;;;;5007294;28;20599;-71
2022/07/30 07:36:11;;;;;;;3.45;3.05;;;21.20;73.50;;;;;;5035358;28;20703;-71
2022/07/30 07:38:36;;;;;;;3.78;3.47;;;21.30;73.30;;;;;;5006164;28;20037;-72
2022/07/30 07:41:02;;;;;;;4.45;4.00;;;21.40;73.00;;;;;;5025149;28;20032;-70
2022/07/30 07:43:28;;;;;;;3.17;2.53;;;21.60;72.90;;;;;;5051787;28;20059;-71
2022/07/30 07:45:53;;;;;;;5.97;3.42;;;21.70;72.50;;;;;;5009546;28;20033;-71
2022/07/30 07:48:19;;;;;;;2.83;2.63;;;21.80;72.30;;;;;;5016056;28;20060;-71
2022/07/30 07:50:44;;;;;;;3.67;3.20;;;21.90;71.90;;;;;;5020751;28;20045;-71
2022/07/30 07:53:11;;;;;;;2.55;2.22;;;22.00;71.70;;;;;;5008364;28;20036;-70
2022/07/30 07:55:37;;;;;;;3.97;2.75;;;22.00;71.40;;;;;;5014310;28;20036;-71
2022/07/30 07:58:02;;;;;;;2.70;2.50;;;22.10;71.20;;;;;;4994474;28;20090;-70
2022/07/30 08:00:28;;;;;;;2.45;2.25;;;22.20;70.90;;;;;;5010718;28;20061;-71
2022/07/30 08:02:53;;;;;;;3.40;2.72;;;22.20;70.50;;;;;;5001729;28;20030;-71
2022/07/30 08:05:19;;;;;;;4.28;3.03;;;22.30;70.20;;;;;;5015180;28;20690;-70
2022/07/30 08:07:45;;;;;;;2.63;2.42;;;22.50;70.10;;;;;;5000960;28;20041;-70
2022/07/30 08:10:12;;;;;;;3.83;2.72;;;22.70;69.70;;;;;;5029790;28;20060;-70
2022/07/30 08:12:38;;;;;;;2.72;2.28;;;22.80;69.30;;;;;;5013775;28;20040;-72
2022/07/30 08:15:04;;;;;;;4.53;2.60;;;22.90;68.90;;;;;;5021360;28;20044;-72
2022/07/30 08:17:30;;;;;;;3.90;2.80;;;23.00;68.50;;;;;;5008079;28;20029;-72
2022/07/30 08:19:59;;;;;;;4.53;2.53;;;23.10;68.30;;;;;;5006116;28;20032;-71
2022/07/30 08:22:25;;;;;;;2.75;2.30;;;23.30;68.10;;;;;;5029340;28;20051;-72
2022/07/30 08:24:50;;;;;;;3.28;2.40;;;23.40;67.70;;;;;;5000111;28;20040;-72
2022/07/30 08:27:16;;;;;;;2.97;2.33;;;23.50;67.10;;;;;;5015430;28;20045;-73
2022/07/30 08:29:41;;;;;;;2.75;2.35;;;23.50;66.60;;;;;;5020602;28;20086;-73
2022/07/30 08:32:07;;;;;;;4.45;2.40;;;23.60;66.30;;;;;;4995770;28;20038;-72
2022/07/30 08:34:33;;;;;;;3.60;2.20;;;23.70;65.80;;;;;;5004657;28;20497;-71
2022/07/30 08:36:58;;;;;;;3.60;2.00;;;23.70;65.40;;;;;;5033516;28;20473;-72
2022/07/30 08:39:24;;;;;;;3.72;2.55;;;23.80;64.90;;;;;;5026376;28;20223;-71
2022/07/30 08:41:49;;;;;;;3.60;2.10;;;23.90;64.50;;;;;;5020493;28;20708;-73
2022/07/30 08:44:16;;;;;;;5.35;2.50;;;24.00;64.20;;;;;;5026075;28;20025;-71
2022/07/30 08:46:42;;;;;;;4.45;2.67;;;24.10;63.70;;;;;;5020060;28;20033;-71
2022/07/30 08:49:08;;;;;;;5.45;2.45;;;24.20;63.20;;;;;;5021146;28;20044;-71
2022/07/30 08:51:34;;;;;;;3.35;2.50;;;24.30;62.80;;;;;;5009930;28;20112;-72
2022/07/30 08:54:00;;;;;;;4.60;2.42;;;24.50;62.70;;;;;;5004262;28;20140;-72
2022/07/30 08:56:26;;;;;;;2.42;1.92;;;24.50;62.10;;;;;;5001438;28;20040;-71
2022/07/30 08:58:51;;;;;;;4.00;2.15;;;24.60;61.60;;;;;;4994432;28;20489;-71
2022/07/30 09:01:17;;;;;;;3.67;2.60;;;24.70;61.20;;;;;;5023695;28;20038;-71
2022/07/30 09:03:42;;;;;;;5.00;2.60;;;24.80;60.90;;;;;;5026621;28;20041;-69
2022/07/30 09:06:08;;;;;;;3.40;2.20;;;24.80;60.70;;;;;;5023478;28;20132;-71
2022/07/30 09:08:33;;;;;;;2.85;2.22;;;24.90;60.50;;;;;;5005606;28;20119;-72
2022/07/30 09:10:59;;;;;;;3.88;3.13;;;25.00;60.20;;;;;;5008654;28;20043;-72
2022/07/30 09:13:29;;;;;;;6.10;2.30;;;25.10;59.90;;;;;;5027868;28;20024;-73
2022/07/30 09:15:56;;;;;;;4.03;2.38;;;25.20;59.50;;;;;;5015931;28;20565;-72
2022/07/30 09:18:37;;;;;;;5.10;2.35;;;25.20;59.40;;;;;;5038427;28;20040;-71
2022/07/30 09:21:25;;;;;;;4.72;2.00;;;25.20;58.90;;;;;;5024301;28;20049;-71
2022/07/30 09:24:10;;;;;;;6.55;2.50;;;25.30;58.70;;;;;;4996698;28;20032;-72
2022/07/30 09:27:03;;;;;;;2.80;2.30;;;25.40;58.80;;;;;;5033191;28;20041;-72
2022/07/30 09:29:29;;;;;;;7.07;2.72;;;25.40;58.30;;;;;;5037198;28;20033;-72
2022/07/30 09:32:02;;;;;;;3.63;2.30;;;25.50;58.70;;;;;;4998418;28;20429;-72
2022/07/30 09:34:33;;;;;;;4.22;2.42;;;25.60;58.20;;;;;;5022170;28;20134;-72
2022/07/30 09:37:03;;;;;;;5.28;2.60;;;25.70;58.10;;;;;;5018546;28;20926;-73
2022/07/30 09:39:32;;;;;;;3.75;2.90;;;25.80;57.90;;;;;;4992359;28;20037;-72
2022/07/30 09:41:59;;;;;;;4.13;2.22;;;25.90;57.50;;;;;;5005351;28;20116;-72
2022/07/30 09:44:25;;;;;;;6.18;3.35;;;26.00;57.20;;;;;;5025486;28;20039;-72
2022/07/30 09:46:51;;;;;;;5.95;2.40;;;26.10;57.20;;;;;;4999990;28;20106;-72
2022/07/30 09:49:19;;;;;;;4.78;2.72;;;26.30;57.00;;;;;;5017691;28;20041;-74
2022/07/30 09:51:45;;;;;;;5.78;2.72;;;26.50;56.50;;;;;;4994480;28;20128;-73
2022/07/30 09:54:10;;;;;;;14.82;3.13;;;26.80;56.20;;;;;;4997467;28;20685;-74
2022/07/30 09:56:36;;;;;;;6.28;2.38;;;26.90;55.50;;;;;;5015937;28;20130;-72
2022/07/30 09:59:01;;;;;;;5.35;2.75;;;27.10;55.00;;;;;;4989962;28;20029;-73
2022/07/30 10:01:27;;;;;;;3.53;2.28;;;27.30;54.60;;;;;;5004893;28;20818;-72
2022/07/30 10:03:53;;;;;;;3.35;2.25;;;27.50;54.20;;;;;;5015847;28;20037;-73
2022/07/30 10:06:29;;;;;;;6.10;2.47;;;27.70;53.90;;;;;;5019975;28;20114;-73
2022/07/30 10:08:54;;;;;;;3.83;2.50;;;27.80;53.20;;;;;;5012090;28;20367;-73
2022/07/30 10:11:22;;;;;;;5.85;2.17;;;27.90;52.80;;;;;;5014638;28;20576;-74
2022/07/30 10:13:48;;;;;;;5.43;2.10;;;28.00;52.60;;;;;;5004223;28;20108;-73
2022/07/30 10:16:13;;;;;;;4.63;2.30;;;28.10;52.20;;;;;;5034144;28;20041;-72
2022/07/30 10:18:41;;;;;;;4.90;2.38;;;28.10;51.80;;;;;;5006534;28;20106;-72
2022/07/30 10:21:06;;;;;;;7.82;2.03;;;28.20;51.30;;;;;;5003846;28;20094;-72
2022/07/30 10:23:32;;;;;;;4.25;1.90;;;28.20;51.00;;;;;;5002369;28;20036;-72
2022/07/30 10:25:58;;;;;;;4.07;2.38;;;28.40;50.70;;;;;;4984551;28;20323;-72
2022/07/30 10:28:24;;;;;;;4.13;2.63;;;28.50;50.40;;;;;;4997947;28;20050;-73
2022/07/30 10:30:53;;;;;;;3.05;1.95;;;28.70;50.10;;;;;;5003400;28;20045;-72
2022/07/30 10:33:27;;;;;;;4.20;2.30;;;28.80;49.50;;;;;;5003816;28;20041;-73
2022/07/30 10:35:53;;;;;;;4.10;2.00;;;28.90;49.00;;;;;;5005247;28;20516;-72
2022/07/30 10:38:20;;;;;;;3.40;1.70;;;29.00;48.70;;;;;;5022437;28;20040;-72
2022/07/30 10:40:51;;;;;;;3.60;2.28;;;29.10;48.30;;;;;;4997268;28;20078;-73
2022/07/30 10:43:49;;;;;;;3.67;1.80;;;29.10;48.00;;;;;;5024323;28;21645;-72
2022/07/30 10:46:19;;;;;;;2.67;1.88;;;29.20;47.10;;;;;;5032182;28;20037;-73
2022/07/30 10:48:45;;;;;;;3.28;1.90;;;29.30;47.90;;;;;;5053407;28;20497;-73
2022/07/30 10:51:10;;;;;;;3.00;1.95;;;29.40;47.50;;;;;;5024611;28;20040;-72
2022/07/30 10:53:45;;;;;;;3.88;2.00;;;29.50;46.90;;;;;;5010756;28;20040;-72
2022/07/30 10:56:19;;;;;;;4.97;2.05;;;29.60;46.10;;;;;;5009660;28;20766;-73
2022/07/30 10:58:58;;;;;;;2.63;1.92;;;29.80;46.10;;;;;;5017790;28;20040;-72
2022/07/30 11:01:24;;;;;;;3.40;2.05;;;30.00;44.90;;;;;;4993341;28;20038;-73
2022/07/30 11:04:18;;;;;;;3.10;1.73;;;30.20;45.30;;;;;;5050209;28;20056;-73
2022/07/30 11:06:43;;;;;;;1.88;1.58;;;30.30;42.90;;;;;;5022336;28;20037;-72
2022/07/30 11:09:35;;;;;;;3.72;1.92;;;30.40;44.20;;;;;;5022276;28;20674;-73
2022/07/30 11:12:01;;;;;;;3.22;1.40;;;30.60;41.80;;;;;;4997692;28;20044;-74
2022/07/30 11:14:45;;;;;;;3.08;1.45;;;30.60;43.10;;;;;;5021633;28;20056;-73
2022/07/30 11:17:17;;;;;;;4.55;1.70;;;30.80;41.70;;;;;;5010918;28;20059;-73
2022/07/30 11:20:01;;;;;;;3.97;1.60;;;31.00;42.40;;;;;;5016014;28;20037;-73
2022/07/30 11:22:30;;;;;;;3.08;1.58;;;31.30;40.60;;;;;;5010967;28;20044;-73
2022/07/30 11:24:56;;;;;;;1.80;1.30;;;31.50;41.60;;;;;;4998696;28;20618;-73
2022/07/30 11:27:41;;;;;;;2.10;1.65;;;31.60;41.10;;;;;;5031234;28;20055;-73
2022/07/30 11:30:15;;;;;;;3.60;1.55;;;31.80;39.70;;;;;;5004618;28;20022;-74
2022/07/30 11:32:41;;;;;;;2.17;1.77;;;31.90;39.70;;;;;;5024996;28;20113;-74
2022/07/30 11:35:09;;;;;;;4.30;2.03;;;32.10;40.10;;;;;;4996491;28;20065;-75
2022/07/30 11:37:57;;;;;;;4.60;1.73;;;32.20;39.50;;;;;;5046431;28;20037;-74
2022/07/30 11:40:26;;;;;;;3.00;1.52;;;32.30;38.60;;;;;;5048335;28;20025;-74
2022/07/30 11:43:28;;;;;;;1.67;1.58;;;32.40;39.40;;;;;;5023085;28;20029;-74
2022/07/30 11:46:21;;;;;;;2.25;1.77;;;32.60;38.40;;;;;;5041264;28;20077;-75
2022/07/30 11:48:58;;;;;;;3.10;2.05;;;32.70;38.10;;;;;;5040280;28;20052;-74
2022/07/30 11:51:23;;;;;;;2.83;1.50;;;32.70;38.50;;;;;;5035527;28;20038;-74
2022/07/30 11:54:05;;;;;;;3.08;1.70;;;32.70;38.90;;;;;;5006324;28;20065;-74
2022/07/30 11:56:31;;;;;;;3.38;2.00;;;32.80;38.10;;;;;;5064413;28;20046;-73
2022/07/30 11:59:03;;;;;;;2.35;1.80;;;32.80;38.90;;;;;;5023964;28;20044;-74
2022/07/30 12:01:29;;;;;;;2.92;1.80;;;32.80;38.60;;;;;;5038815;28;20050;-75
2022/07/30 12:03:55;;;;;;;2.72;1.85;;;32.90;38.60;;;;;;5045996;28;20569;-74
2022/07/30 12:06:20;;;;;;;3.97;1.55;;;33.00;38.40;;;;;;5014727;28;20109;-75
2022/07/30 12:08:49;;;;;;;3.35;1.60;;;33.10;38.20;;;;;;4988724;28;20458;-75
2022/07/30 12:11:15;;;;;;;2.00;1.80;;;33.30;38.20;;;;;;5035484;28;20033;-74
2022/07/30 12:13:44;;;;;;;2.72;1.83;;;33.40;37.90;;;;;;5031421;28;20431;-74
2022/07/30 12:16:14;;;;;;;2.83;1.70;;;33.50;37.50;;;;;;5026174;28;20044;-76
2022/07/30 12:18:40;;;;;;;;;;;33.60;37.20;;;;;;5034484;28;20563;-75
2022/07/30 12:21:07;;;;;;;4.20;1.85;;;33.60;37.40;;;;;;5027209;28;19940;-75
2022/07/30 12:23:33;;;;;;;2.88;1.55;;;33.60;37.60;;;;;;5055053;28;20059;-75
2022/07/30 12:25:58;;;;;;;2.25;1.95;;;33.70;37.20;;;;;;5031308;28;20045;-74
2022/07/30 12:28:25;;;;;;;5.55;1.77;;;33.70;36.90;;;;;;5039918;28;20249;-76
2022/07/30 12:30:51;;;;;;;4.43;2.05;;;33.80;36.70;;;;;;5038416;28;20349;-75
2022/07/30 12:33:21;;;;;;;3.13;1.80;;;33.90;36.30;;;;;;5032295;28;20041;-75
2022/07/30 12:35:50;;;;;;;3.20;1.63;;;33.90;36.70;;;;;;5035753;28;20123;-75
2022/07/30 12:38:17;;;;;;;4.32;1.67;;;33.90;35.80;;;;;;5048608;28;20055;-74
2022/07/30 12:40:54;;;;;;;2.47;2.03;;;34.00;35.60;;;;;;5015034;28;20103;-75
2022/07/30 12:43:42;;;;;;;1.70;1.60;;;34.00;34.90;;;;;;5014214;28;20501;-74
2022/07/30 12:46:08;;;;;;;3.28;2.40;;;34.10;34.70;;;;;;5036069;28;20472;-74
2022/07/30 12:48:33;;;;;;;2.30;1.90;;;34.20;35.50;;;;;;5046388;28;20028;-76
2022/07/30 12:51:08;;;;;;;2.70;1.88;;;34.40;35.40;;;;;;5040196;28;20040;-74
2022/07/30 12:53:33;;;;;;;3.58;1.90;;;34.40;34.40;;;;;;5030159;28;20057;-75
2022/07/30 12:56:12;;;;;;;4.03;1.83;;;34.50;34.90;;;;;;5038348;28;20087;-74